createdAt,value
2024-05-09T00:00:10.478Z,100.00
2024-05-09T00:01:18.184Z,100.00
2024-05-09T00:02:20.700Z,100.00
2024-05-09T00:03:25.838Z,100.00
2024-05-09T00:04:28.389Z,100.00
2024-05-09T00:05:34.012Z,100.00
2024-05-09T00:06:37.020Z,100.00
2024-05-09T00:07:42.100Z,100.00
2024-05-09T00:08:45.163Z,100.00
2024-05-09T00:09:50.918Z,100.00
2024-05-09T00:10:56.488Z,100.00
2024-05-09T00:12:01.920Z,100.00
2024-05-09T00:13:05.115Z,100.00
2024-05-09T00:14:10.448Z,100.00
2024-05-09T00:15:12.894Z,100.00
2024-05-09T00:16:18.003Z,100.00
2024-05-09T00:17:20.876Z,100.00
2024-05-09T00:18:26.296Z,100.00
2024-05-09T00:19:29.072Z,100.00
2024-05-09T00:20:39.041Z,100.00
2024-05-09T00:21:43.560Z,100.00
2024-05-09T00:22:49.043Z,100.00
2024-05-09T00:23:51.575Z,100.00
2024-05-09T00:24:57.095Z,100.00
2024-05-09T00:26:02.378Z,100.00
2024-05-09T00:27:09.069Z,100.00
2024-05-09T00:28:13.178Z,100.00
2024-05-09T00:29:18.411Z,100.00
2024-05-09T00:30:27.998Z,100.00
2024-05-09T00:31:38.436Z,100.00
2024-05-09T00:32:41.003Z,100.00
2024-05-09T00:33:46.330Z,100.00
2024-05-09T00:34:48.995Z,100.00
2024-05-09T00:35:54.450Z,100.00
2024-05-09T00:36:56.923Z,100.00
2024-05-09T00:38:02.425Z,100.00
2024-05-09T00:39:04.956Z,100.00
2024-05-09T00:40:18.318Z,100.00
2024-05-09T00:41:28.015Z,100.00
2024-05-09T00:42:33.404Z,100.00
2024-05-09T00:43:35.840Z,100.00
2024-05-09T00:44:40.929Z,100.00
2024-05-09T00:45:43.876Z,100.00
2024-05-09T00:46:54.677Z,100.00
2024-05-09T00:47:58.478Z,100.00
2024-05-09T00:49:05.560Z,100.00
2024-05-09T00:50:12.860Z,100.00
2024-05-09T00:51:24.254Z,100.00
2024-05-09T00:52:27.927Z,100.00
2024-05-09T00:53:34.115Z,100.00
2024-05-09T00:54:36.983Z,100.00
2024-05-09T00:55:43.168Z,100.00
2024-05-09T00:56:49.874Z,100.00
2024-05-09T00:57:55.359Z,100.00
2024-05-09T00:58:58.006Z,100.00
2024-05-09T01:00:04.720Z,100.00
2024-05-09T01:01:09.266Z,100.00
2024-05-09T01:02:14.977Z,100.00
2024-05-09T01:03:18.331Z,100.00
2024-05-09T01:04:23.902Z,100.00
2024-05-09T01:05:26.444Z,100.00
2024-05-09T01:06:31.698Z,100.00
2024-05-09T01:07:34.352Z,100.00
2024-05-09T01:08:39.578Z,100.00
2024-05-09T01:09:42.189Z,100.00
2024-05-09T01:10:48.691Z,100.00
2024-05-09T01:11:54.349Z,100.00
2024-05-09T01:12:59.649Z,100.00
2024-05-09T01:14:02.261Z,100.00
2024-05-09T01:15:07.857Z,100.00
2024-05-09T01:16:10.314Z,100.00
2024-05-09T01:17:15.654Z,100.00
2024-05-09T01:18:18.540Z,100.00
2024-05-09T01:19:31.406Z,100.00
2024-05-09T01:20:41.093Z,100.00
2024-05-09T01:21:48.868Z,100.00
2024-05-09T01:22:52.995Z,100.00
2024-05-09T01:24:01.119Z,100.00
2024-05-09T01:25:03.935Z,100.00
2024-05-09T01:26:09.135Z,100.00
2024-05-09T01:27:15.764Z,100.00
2024-05-09T01:28:21.286Z,100.00
2024-05-09T01:29:23.915Z,100.00
2024-05-09T01:30:34.729Z,100.00
2024-05-09T01:31:39.956Z,100.00
2024-05-09T01:32:46.309Z,100.00
2024-05-09T01:33:49.261Z,100.00
2024-05-09T01:34:54.639Z,100.00
2024-05-09T01:35:57.614Z,100.00
2024-05-09T01:37:02.829Z,100.00
2024-05-09T01:38:05.728Z,100.00
2024-05-09T01:39:13.892Z,100.00
2024-05-09T01:40:22.007Z,100.00
2024-05-09T01:41:30.060Z,100.00
2024-05-09T01:42:32.754Z,100.00
2024-05-09T01:43:40.072Z,100.00
2024-05-09T01:44:43.617Z,100.00
2024-05-09T01:45:49.319Z,100.00
2024-05-09T01:46:52.163Z,100.00
2024-05-09T01:47:54.855Z,100.00
2024-05-09T01:49:00.055Z,100.00
2024-05-09T01:50:03.301Z,100.00
2024-05-09T01:51:08.979Z,100.00
2024-05-09T01:52:11.848Z,100.00
2024-05-09T01:53:17.687Z,100.00
2024-05-09T01:54:23.122Z,100.00
2024-05-09T01:55:28.473Z,100.00
2024-05-09T01:56:31.208Z,100.00
2024-05-09T01:57:36.334Z,100.00
2024-05-09T01:58:38.882Z,100.00
2024-05-09T01:59:43.946Z,100.00
2024-05-09T02:00:46.435Z,100.00
2024-05-09T02:01:56.823Z,100.00
2024-05-09T02:03:00.737Z,100.00
2024-05-09T02:04:06.536Z,100.00
2024-05-09T02:05:09.548Z,100.00
2024-05-09T02:06:14.907Z,100.00
2024-05-09T02:07:18.357Z,100.00
2024-05-09T02:08:24.427Z,100.00
2024-05-09T02:09:29.523Z,100.00
2024-05-09T02:10:34.668Z,100.00
2024-05-09T02:11:41.567Z,100.00
2024-05-09T02:12:47.114Z,100.00
2024-05-09T02:13:49.598Z,100.00
2024-05-09T02:14:54.935Z,100.00
2024-05-09T02:15:57.337Z,100.00
2024-05-09T02:17:02.662Z,100.00
2024-05-09T02:18:05.927Z,100.00
2024-05-09T02:19:11.602Z,100.00
2024-05-09T02:20:22.573Z,100.00
2024-05-09T02:21:34.366Z,100.00
2024-05-09T02:22:37.367Z,100.00
2024-05-09T02:23:43.090Z,100.00
2024-05-09T02:24:48.324Z,100.00
2024-05-09T02:25:53.452Z,100.00
2024-05-09T02:26:56.005Z,100.00
2024-05-09T02:28:01.110Z,100.00
2024-05-09T02:29:03.641Z,100.00
2024-05-09T02:30:18.743Z,100.00
2024-05-09T02:31:28.476Z,100.00
2024-05-09T02:32:31.228Z,100.00
2024-05-09T02:33:36.714Z,100.00
2024-05-09T02:34:39.625Z,100.00
2024-05-09T02:35:43.967Z,100.00
2024-05-09T02:36:49.476Z,100.00
2024-05-09T02:37:51.892Z,100.00
2024-05-09T02:38:54.486Z,100.00
2024-05-09T02:40:03.399Z,100.00
2024-05-09T02:41:06.189Z,100.00
2024-05-09T02:42:08.582Z,100.00
2024-05-09T02:43:12.975Z,100.00
2024-05-09T02:44:18.522Z,100.00
2024-05-09T02:45:20.989Z,100.00
2024-05-09T02:46:23.486Z,100.00
2024-05-09T02:47:28.804Z,100.00
2024-05-09T02:48:31.551Z,100.00
2024-05-09T02:49:34.285Z,100.00
2024-05-09T02:50:39.347Z,100.00
2024-05-09T02:51:45.244Z,100.00
2024-05-09T02:52:47.739Z,100.00
2024-05-09T02:53:50.351Z,100.00
2024-05-09T02:54:52.820Z,100.00
2024-05-09T02:56:00.885Z,100.00
2024-05-09T02:57:03.578Z,100.00
2024-05-09T02:58:07.542Z,100.00
2024-05-09T02:59:10.080Z,100.00
2024-05-09T03:00:22.590Z,100.00
2024-05-09T03:01:29.584Z,100.00
2024-05-09T03:02:32.283Z,100.00
2024-05-09T03:03:34.981Z,100.00
2024-05-09T03:04:40.674Z,100.00
2024-05-09T03:05:43.708Z,100.00
2024-05-09T03:06:46.377Z,100.00
2024-05-09T03:07:48.955Z,100.00
2024-05-09T03:08:54.710Z,100.00
2024-05-09T03:09:57.179Z,100.00
2024-05-09T03:11:02.439Z,100.00
2024-05-09T03:12:08.516Z,100.00
2024-05-09T03:13:14.109Z,100.00
2024-05-09T03:14:18.359Z,100.00
2024-05-09T03:15:22.695Z,100.00
2024-05-09T03:16:27.947Z,100.00
2024-05-09T03:17:30.735Z,100.00
2024-05-09T03:18:33.458Z,100.00
2024-05-09T03:19:37.085Z,100.00
2024-05-09T03:20:44.247Z,100.00
2024-05-09T03:21:47.064Z,100.00
2024-05-09T03:22:50.413Z,100.00
2024-05-09T03:23:53.728Z,100.00
2024-05-09T03:24:58.981Z,100.00
2024-05-09T03:26:09.951Z,100.00
2024-05-09T03:27:12.931Z,100.00
2024-05-09T03:28:15.424Z,100.00
2024-05-09T03:29:20.810Z,100.00
2024-05-09T03:30:35.934Z,100.00
2024-05-09T03:31:43.733Z,100.00
2024-05-09T03:32:49.131Z,100.00
2024-05-09T03:33:51.957Z,100.00
2024-05-09T03:34:54.460Z,100.00
2024-05-09T03:35:56.924Z,100.00
2024-05-09T03:37:02.026Z,100.00
2024-05-09T03:38:04.962Z,100.00
2024-05-09T03:39:09.427Z,100.00
2024-05-09T03:40:23.353Z,100.00
2024-05-09T03:41:31.691Z,100.00
2024-05-09T03:42:40.884Z,100.00
2024-05-09T03:43:44.936Z,100.00
2024-05-09T03:44:50.052Z,100.00
2024-05-09T03:45:52.479Z,100.00
2024-05-09T03:46:55.117Z,100.00
2024-05-09T03:47:57.704Z,100.00
2024-05-09T03:49:02.979Z,100.00
2024-05-09T03:50:11.978Z,100.00
2024-05-09T03:51:17.481Z,100.00
2024-05-09T03:52:19.932Z,100.00
2024-05-09T03:53:25.620Z,100.00
2024-05-09T03:54:28.277Z,100.00
2024-05-09T03:55:31.328Z,100.00
2024-05-09T03:56:38.192Z,100.00
2024-05-09T03:57:43.313Z,100.00
2024-05-09T03:58:45.962Z,100.00
2024-05-09T03:59:48.404Z,100.00
2024-05-09T04:00:50.976Z,100.00
2024-05-09T04:01:56.357Z,100.00
2024-05-09T04:02:59.940Z,100.00
2024-05-09T04:04:02.507Z,100.00
2024-05-09T04:05:05.329Z,100.00
2024-05-09T04:06:10.459Z,100.00
2024-05-09T04:07:12.879Z,100.00
2024-05-09T04:08:15.800Z,100.00
2024-05-09T04:09:18.445Z,100.00
2024-05-09T04:10:30.151Z,100.00
2024-05-09T04:11:38.456Z,100.00
2024-05-09T04:12:41.007Z,100.00
2024-05-09T04:13:43.533Z,100.00
2024-05-09T04:14:48.552Z,100.00
2024-05-09T04:15:50.928Z,100.00
2024-05-09T04:16:53.494Z,100.00
2024-05-09T04:17:56.291Z,100.00
2024-05-09T04:19:01.625Z,100.00
2024-05-09T04:20:08.309Z,100.00
2024-05-09T04:21:11.040Z,100.00
2024-05-09T04:22:13.949Z,100.00
2024-05-09T04:23:16.513Z,100.00
2024-05-09T04:24:21.633Z,100.00
2024-05-09T04:25:24.064Z,100.00
2024-05-09T04:26:26.532Z,100.00
2024-05-09T04:27:31.764Z,100.00
2024-05-09T04:28:37.135Z,100.00
2024-05-09T04:29:40.414Z,100.00
2024-05-09T04:30:43.362Z,100.00
2024-05-09T04:31:48.778Z,100.00
2024-05-09T04:32:51.527Z,100.00
2024-05-09T04:33:54.252Z,100.00
2024-05-09T04:34:59.598Z,100.00
2024-05-09T04:36:02.161Z,100.00
2024-05-09T04:37:05.071Z,100.00
2024-05-09T04:38:11.203Z,100.00
2024-05-09T04:39:13.864Z,100.00
2024-05-09T04:40:24.326Z,100.00
2024-05-09T04:41:36.478Z,100.00
2024-05-09T04:42:43.244Z,100.00
2024-05-09T04:43:45.728Z,100.00
2024-05-09T04:44:48.898Z,100.00
2024-05-09T04:45:54.005Z,100.00
2024-05-09T04:46:56.506Z,100.00
2024-05-09T04:47:59.292Z,100.00
2024-05-09T04:49:02.140Z,100.00
2024-05-09T04:50:08.852Z,100.00
2024-05-09T04:51:16.561Z,100.00
2024-05-09T04:52:19.068Z,100.00
2024-05-09T04:53:21.613Z,100.00
2024-05-09T04:54:34.137Z,100.00
2024-05-09T04:55:39.389Z,100.00
2024-05-09T04:56:42.177Z,100.00
2024-05-09T04:57:47.409Z,100.00
2024-05-09T04:58:52.584Z,100.00
2024-05-09T04:59:55.926Z,100.00
2024-05-09T05:00:59.768Z,100.00
2024-05-09T05:02:02.595Z,100.00
2024-05-09T05:05:30.822Z,100.00
2024-05-09T05:06:39.266Z,100.00
2024-05-09T05:07:42.363Z,100.00
2024-05-09T05:08:48.451Z,100.00
2024-05-09T05:10:56.216Z,100.00
2024-05-09T05:11:59.865Z,100.00
2024-05-09T05:13:23.950Z,100.00
2024-05-09T05:14:27.251Z,100.00
2024-05-09T05:15:29.817Z,100.00
2024-05-09T05:16:35.192Z,100.00
2024-05-09T05:17:38.052Z,100.00
2024-05-09T05:18:40.666Z,100.00
2024-05-09T05:19:43.523Z,100.00
2024-05-09T05:20:48.790Z,100.00
2024-05-09T05:21:51.310Z,100.00
2024-05-09T05:22:53.793Z,100.00
2024-05-09T05:23:59.052Z,100.00
2024-05-09T05:25:01.519Z,100.00
2024-05-09T05:26:04.194Z,100.00
2024-05-09T05:27:06.872Z,100.00
2024-05-09T05:28:14.733Z,100.00
2024-05-09T05:29:20.263Z,100.00
2024-05-09T05:30:29.001Z,100.00
2024-05-09T05:31:38.379Z,100.00
2024-05-09T05:32:40.971Z,100.00
2024-05-09T05:33:43.616Z,100.00
2024-05-09T05:34:46.318Z,100.00
2024-05-09T05:35:51.501Z,100.00
2024-05-09T05:36:54.623Z,100.00
2024-05-09T05:37:57.128Z,100.00
2024-05-09T05:38:59.612Z,100.00
2024-05-09T05:40:05.789Z,100.00
2024-05-09T05:41:08.370Z,100.00
2024-05-09T05:42:12.164Z,100.00
2024-05-09T05:43:19.518Z,100.00
2024-05-09T05:44:24.783Z,100.00
2024-05-09T05:45:27.549Z,100.00
2024-05-09T05:46:30.187Z,100.00
2024-05-09T05:47:33.037Z,100.00
2024-05-09T05:48:38.359Z,100.00
2024-05-09T05:49:41.093Z,100.00
2024-05-09T05:50:43.885Z,100.00
2024-05-09T05:51:46.318Z,100.00
2024-05-09T05:52:51.452Z,100.00
2024-05-09T05:53:55.342Z,100.00
2024-05-09T05:54:58.076Z,100.00
2024-05-09T05:56:03.508Z,100.00
2024-05-09T05:57:06.142Z,100.00
2024-05-09T05:58:09.837Z,100.00
2024-05-09T05:59:15.571Z,100.00
2024-05-09T06:00:29.394Z,100.00
2024-05-09T06:01:37.984Z,100.00
2024-05-09T06:02:40.802Z,100.00
2024-05-09T06:03:46.358Z,100.00
2024-05-09T06:04:49.247Z,100.00
2024-05-09T06:05:52.026Z,100.00
2024-05-09T06:06:54.654Z,100.00
2024-05-09T06:07:59.818Z,100.00
2024-05-09T06:09:02.569Z,100.00
2024-05-09T06:10:09.183Z,100.00
2024-05-09T06:11:14.085Z,100.00
2024-05-09T06:12:19.523Z,100.00
2024-05-09T06:13:22.141Z,100.00
2024-05-09T06:14:27.322Z,100.00
2024-05-09T06:15:29.822Z,100.00
2024-05-09T06:16:35.120Z,100.00
2024-05-09T06:17:37.794Z,100.00
2024-05-09T06:18:40.604Z,100.00
2024-05-09T06:19:43.285Z,100.00
2024-05-09T06:20:48.465Z,100.00
2024-05-09T06:21:51.088Z,100.00
2024-05-09T06:22:53.567Z,100.00
2024-05-09T06:23:56.115Z,100.00
2024-05-09T06:25:04.524Z,100.00
2024-05-09T06:26:07.066Z,100.00
2024-05-09T06:27:09.892Z,100.00
2024-05-09T06:28:12.374Z,100.00
2024-05-09T06:29:17.591Z,100.00
2024-05-09T06:30:30.093Z,100.00
2024-05-09T06:31:40.452Z,100.00
2024-05-09T06:32:46.442Z,100.00
2024-05-09T06:33:49.163Z,100.00
2024-05-09T06:34:52.190Z,100.00
2024-05-09T06:35:59.345Z,100.00
2024-05-09T06:37:04.475Z,100.00
2024-05-09T06:38:09.228Z,100.00
2024-05-09T06:39:12.133Z,100.00
2024-05-09T06:40:17.759Z,100.00
2024-05-09T06:41:30.245Z,100.00
2024-05-09T06:42:32.903Z,100.00
2024-05-09T06:43:35.555Z,100.00
2024-05-09T06:44:40.692Z,100.00
2024-05-09T06:45:47.177Z,100.00
2024-05-09T06:46:49.988Z,100.00
2024-05-09T06:47:55.842Z,100.00
2024-05-09T06:49:04.574Z,100.00
2024-05-09T06:50:13.348Z,100.00
2024-05-09T06:51:23.284Z,100.00
2024-05-09T06:52:28.372Z,100.00
2024-05-09T06:53:31.172Z,100.00
2024-05-09T06:54:33.558Z,100.00
2024-05-09T06:55:36.880Z,100.00
2024-05-09T06:56:42.531Z,100.00
2024-05-09T06:57:44.982Z,100.00
2024-05-09T06:58:47.492Z,100.00
2024-05-09T06:59:49.915Z,100.00
2024-05-09T07:00:57.827Z,100.00
2024-05-09T07:02:00.274Z,100.00
2024-05-09T07:03:07.728Z,100.00
2024-05-09T07:04:10.729Z,100.00
2024-05-09T07:05:16.253Z,100.00
2024-05-09T07:06:18.710Z,100.00
2024-05-09T07:07:21.154Z,100.00
2024-05-09T07:08:23.681Z,100.00
2024-05-09T07:09:28.892Z,100.00
2024-05-09T07:10:35.154Z,100.00
2024-05-09T07:11:38.614Z,100.00
2024-05-09T07:12:41.170Z,100.00
2024-05-09T07:13:46.320Z,100.00
2024-05-09T07:14:48.756Z,100.00
2024-05-09T07:15:51.269Z,100.00
2024-05-09T07:16:56.937Z,100.00
2024-05-09T07:18:02.344Z,100.00
2024-05-09T07:19:05.021Z,100.00
2024-05-09T07:20:11.814Z,100.00
2024-05-09T07:21:21.217Z,100.00
2024-05-09T07:22:25.565Z,100.00
2024-05-09T07:23:28.560Z,100.00
2024-05-09T07:24:31.386Z,95.50
2024-05-09T07:25:36.513Z,92.52
2024-05-09T07:26:38.942Z,99.72
2024-05-09T07:27:41.490Z,100.00
2024-05-09T07:28:43.955Z,100.00
2024-05-09T07:29:49.010Z,100.00
2024-05-09T07:30:51.428Z,100.00
2024-05-09T07:31:56.544Z,100.00
2024-05-09T07:32:59.407Z,96.16
2024-05-09T07:34:04.656Z,95.80
2024-05-09T07:35:07.527Z,91.25
2024-05-09T07:36:10.048Z,82.46
2024-05-09T07:37:14.037Z,81.01
2024-05-09T07:38:19.335Z,73.30
2024-05-09T07:39:22.965Z,79.42
2024-05-09T07:40:33.005Z,83.89
2024-05-09T07:41:41.976Z,88.98
2024-05-09T07:42:46.226Z,86.75
2024-05-09T07:43:49.070Z,84.46
2024-05-09T07:44:55.503Z,85.92
2024-05-09T07:46:37.814Z,85.17
2024-05-09T07:48:56.964Z,72.10
2024-05-09T07:51:32.964Z,73.56
2024-05-09T07:53:43.290Z,70.96
2024-05-09T07:54:51.972Z,70.86
2024-05-09T07:55:55.995Z,70.63
2024-05-09T07:57:02.063Z,71.16
2024-05-09T07:58:04.916Z,73.07
2024-05-09T07:59:07.355Z,74.67
2024-05-09T08:00:14.329Z,73.72
2024-05-09T08:01:20.116Z,73.57
2024-05-09T08:02:26.327Z,74.15
2024-05-09T08:03:29.396Z,77.12
2024-05-09T08:04:32.085Z,70.87
2024-05-09T08:05:38.320Z,74.67
2024-05-09T08:06:40.804Z,76.49
2024-05-09T08:07:45.329Z,79.35
2024-05-09T08:08:48.003Z,73.32
2024-05-09T08:09:53.157Z,72.62
2024-05-09T08:10:55.843Z,74.84
2024-05-09T08:11:59.301Z,78.72
2024-05-09T08:13:04.534Z,78.54
2024-05-09T08:14:07.203Z,74.03
2024-05-09T08:15:09.614Z,70.63
2024-05-09T08:16:17.249Z,71.22
2024-05-09T08:17:20.013Z,67.01
2024-05-09T08:18:25.284Z,72.19
2024-05-09T08:19:27.833Z,73.29
2024-05-09T08:20:35.302Z,72.26
2024-05-09T08:21:38.226Z,74.19
2024-05-09T08:22:40.666Z,75.64
2024-05-09T08:23:43.092Z,73.26
2024-05-09T08:24:48.592Z,70.71
2024-05-09T08:25:52.973Z,68.32
2024-05-09T08:26:55.404Z,66.75
2024-05-09T08:28:00.621Z,63.93
2024-05-09T08:29:03.256Z,66.58
2024-05-09T08:30:10.181Z,66.06
2024-05-09T08:31:15.396Z,64.69
2024-05-09T08:32:21.167Z,61.89
2024-05-09T08:33:26.411Z,60.13
2024-05-09T08:34:28.988Z,60.64
2024-05-09T08:35:31.956Z,60.72
2024-05-09T08:36:37.362Z,63.02
2024-05-09T08:37:40.706Z,61.53
2024-05-09T08:38:43.358Z,57.91
2024-05-09T08:39:45.821Z,53.67
2024-05-09T08:40:52.021Z,50.40
2024-05-09T08:41:54.567Z,50.80
2024-05-09T08:42:57.905Z,46.92
2024-05-09T08:44:03.389Z,49.45
2024-05-09T08:45:06.769Z,49.14
2024-05-09T08:46:09.464Z,47.53
2024-05-09T08:47:12.041Z,46.70
2024-05-09T08:48:17.326Z,46.68
2024-05-09T08:49:24.555Z,45.03
2024-05-09T08:50:35.489Z,44.00
2024-05-09T08:51:43.745Z,44.90
2024-05-09T08:52:46.401Z,46.45
2024-05-09T08:53:48.982Z,44.67
2024-05-09T08:54:51.714Z,44.44
2024-05-09T08:56:00.184Z,43.44
2024-05-09T08:57:04.716Z,43.59
2024-05-09T08:58:09.325Z,44.53
2024-05-09T08:59:20.397Z,44.42
2024-05-09T09:00:33.457Z,41.69
2024-05-09T09:01:41.753Z,41.54
2024-05-09T09:02:47.870Z,42.76
2024-05-09T09:03:53.679Z,42.52
2024-05-09T09:05:05.506Z,40.28
2024-05-09T09:06:12.385Z,39.48
2024-05-09T09:07:17.822Z,39.53
2024-05-09T09:08:21.588Z,39.12
2024-05-09T09:09:26.779Z,37.46
2024-05-09T09:10:33.330Z,35.73
2024-05-09T09:11:36.150Z,34.40
2024-05-09T09:12:39.091Z,34.80
2024-05-09T09:13:44.301Z,36.22
2024-05-09T09:14:46.890Z,37.89
2024-05-09T09:15:49.811Z,39.28
2024-05-09T09:16:56.625Z,40.03
2024-05-09T09:18:00.206Z,40.45
2024-05-09T09:19:04.365Z,41.14
2024-05-09T09:20:14.424Z,43.29
2024-05-09T09:21:25.037Z,46.32
2024-05-09T09:22:27.504Z,47.50
2024-05-09T09:23:30.720Z,47.81
2024-05-09T09:24:33.901Z,48.26
2024-05-09T09:25:42.538Z,48.68
2024-05-09T09:26:45.886Z,46.62
2024-05-09T09:27:48.528Z,45.89
2024-05-09T09:28:53.820Z,43.86
2024-05-09T09:29:57.370Z,44.24
2024-05-09T09:31:03.543Z,41.47
2024-05-09T09:32:10.728Z,42.39
2024-05-09T09:33:13.306Z,38.28
2024-05-09T09:34:16.144Z,40.29
2024-05-09T09:35:21.339Z,42.60
2024-05-09T09:36:26.490Z,40.08
2024-05-09T09:37:29.805Z,40.13
2024-05-09T09:38:32.642Z,39.22
2024-05-09T09:39:36.639Z,38.01
2024-05-09T09:40:48.643Z,36.99
2024-05-09T09:41:54.121Z,36.88
2024-05-09T09:42:58.217Z,35.08
2024-05-09T09:44:05.390Z,35.31
2024-05-09T09:45:08.246Z,34.60
2024-05-09T09:46:13.774Z,35.16
2024-05-09T09:47:19.163Z,34.30
2024-05-09T09:48:24.909Z,34.70
2024-05-09T09:49:28.025Z,35.56
2024-05-09T09:50:35.527Z,35.73
2024-05-09T09:51:43.734Z,35.31
2024-05-09T09:52:49.539Z,37.66
2024-05-09T09:53:53.171Z,35.50
2024-05-09T09:54:57.616Z,36.62
2024-05-09T09:56:02.189Z,37.18
2024-05-09T09:57:08.100Z,38.43
2024-05-09T09:58:14.061Z,37.27
2024-05-09T09:59:17.509Z,36.17
2024-05-09T10:00:27.441Z,39.32
2024-05-09T10:01:37.875Z,37.93
2024-05-09T10:02:40.786Z,41.56
2024-05-09T10:03:45.598Z,40.28
2024-05-09T10:04:48.471Z,39.50
2024-05-09T10:05:57.388Z,43.62
2024-05-09T10:07:03.382Z,45.82
2024-05-09T10:08:07.821Z,41.96
2024-05-09T10:09:14.319Z,42.12
2024-05-09T10:10:31.887Z,40.06
2024-05-09T10:11:42.068Z,41.57
2024-05-09T10:12:59.030Z,42.33
2024-05-09T10:14:04.252Z,37.89
2024-05-09T10:15:10.123Z,41.64
2024-05-09T10:16:12.725Z,41.80
2024-05-09T10:17:15.411Z,38.15
2024-05-09T10:18:27.227Z,34.36
2024-05-09T10:19:32.142Z,35.90
2024-05-09T10:20:42.676Z,36.34
2024-05-09T10:21:52.171Z,35.74
2024-05-09T10:22:54.713Z,37.64
2024-05-09T10:23:57.914Z,42.20
2024-05-09T10:25:06.120Z,37.79
2024-05-09T10:26:11.220Z,34.03
2024-05-09T10:27:14.126Z,38.72
2024-05-09T10:28:17.085Z,35.98
2024-05-09T10:29:20.263Z,34.60
2024-05-09T10:30:34.102Z,33.30
2024-05-09T10:31:41.307Z,31.21
2024-05-09T10:32:45.351Z,29.16
2024-05-09T10:33:50.866Z,27.32
2024-05-09T10:35:03.648Z,24.84
2024-05-09T10:36:11.976Z,24.86
2024-05-09T10:37:17.882Z,26.38
2024-05-09T10:38:20.469Z,26.37
2024-05-09T10:39:25.883Z,25.99
2024-05-09T10:40:31.697Z,26.20
2024-05-09T10:41:38.115Z,26.30
2024-05-09T10:42:41.976Z,25.16
2024-05-09T10:43:47.728Z,23.78
2024-05-09T10:44:50.582Z,23.11
2024-05-09T10:45:53.355Z,24.17
2024-05-09T10:46:55.945Z,23.29
2024-05-09T10:48:01.422Z,22.08
2024-05-09T10:49:07.739Z,25.55
2024-05-09T10:50:18.531Z,24.07
2024-05-09T10:51:28.036Z,22.51
2024-05-09T10:52:37.876Z,23.18
2024-05-09T10:53:43.599Z,23.69
2024-05-09T10:54:49.380Z,23.97
2024-05-09T10:55:58.966Z,26.00
2024-05-09T10:57:04.168Z,26.70
2024-05-09T10:58:17.563Z,25.67
2024-05-09T10:59:20.411Z,26.64
2024-05-09T11:00:30.692Z,25.81
2024-05-09T11:01:38.920Z,26.89
2024-05-09T11:02:42.046Z,26.38
2024-05-09T11:03:47.929Z,27.52
2024-05-09T11:04:53.334Z,27.83
2024-05-09T11:05:56.370Z,26.86
2024-05-09T11:07:02.838Z,26.71
2024-05-09T11:08:11.176Z,26.33
2024-05-09T11:09:16.487Z,27.95
2024-05-09T11:10:27.287Z,27.89
2024-05-09T11:11:34.603Z,27.52
2024-05-09T11:12:39.990Z,27.13
2024-05-09T11:13:42.963Z,29.23
2024-05-09T11:14:53.498Z,28.28
2024-05-09T11:15:56.174Z,27.74
2024-05-09T11:17:06.297Z,26.18
2024-05-09T11:18:23.505Z,24.75
2024-05-09T11:19:30.908Z,24.50
2024-05-09T11:20:39.198Z,25.59
2024-05-09T11:21:41.811Z,26.21
2024-05-09T11:22:44.904Z,25.81
2024-05-09T11:23:50.464Z,24.38
2024-05-09T11:24:55.760Z,25.84
2024-05-09T11:25:59.060Z,25.50
2024-05-09T11:27:03.899Z,25.83
2024-05-09T11:28:06.845Z,24.94
2024-05-09T11:29:12.239Z,26.17
2024-05-09T11:30:26.685Z,26.43
2024-05-09T11:31:45.754Z,28.18
2024-05-09T11:32:51.330Z,27.88
2024-05-09T11:33:54.927Z,27.81
2024-05-09T11:34:57.957Z,26.77
2024-05-09T11:36:03.256Z,25.22
2024-05-09T11:37:06.226Z,24.28
2024-05-09T11:38:08.866Z,23.76
2024-05-09T11:39:14.991Z,24.50
2024-05-09T11:40:25.489Z,25.56
2024-05-09T11:41:31.571Z,25.31
2024-05-09T11:42:34.320Z,27.68
2024-05-09T11:43:36.826Z,27.40
2024-05-09T11:44:42.015Z,27.90
2024-05-09T11:45:44.589Z,26.41
2024-05-09T11:46:47.264Z,28.65
2024-05-09T11:47:52.863Z,28.77
2024-05-09T11:48:55.721Z,27.43
2024-05-09T11:49:58.714Z,28.25
2024-05-09T11:51:01.817Z,28.29
2024-05-09T11:52:07.935Z,30.19
2024-05-09T11:53:12.714Z,29.71
2024-05-09T11:54:18.030Z,32.57
2024-05-09T11:55:27.384Z,31.26
2024-05-09T11:56:31.309Z,32.38
2024-05-09T11:57:33.764Z,28.85
2024-05-09T11:58:39.533Z,29.14
2024-05-09T11:59:45.463Z,27.94
2024-05-09T12:00:47.939Z,30.37
2024-05-09T12:01:50.714Z,28.88
2024-05-09T12:02:58.205Z,28.49
2024-05-09T12:04:01.211Z,29.00
2024-05-09T12:05:04.745Z,29.76
2024-05-09T12:06:07.614Z,29.34
2024-05-09T12:07:13.384Z,29.39
2024-05-09T12:08:16.135Z,29.45
2024-05-09T12:09:21.504Z,30.48
2024-05-09T12:10:33.051Z,30.46
2024-05-09T12:11:37.988Z,31.60
2024-05-09T12:12:40.618Z,29.38
2024-05-09T12:13:46.130Z,30.45
2024-05-09T12:14:48.862Z,30.50
2024-05-09T12:15:51.683Z,30.75
2024-05-09T12:16:54.582Z,32.22
2024-05-09T12:18:02.805Z,33.70
2024-05-09T12:19:06.677Z,35.86
2024-05-09T12:20:17.498Z,35.06
2024-05-09T12:21:28.562Z,35.47
2024-05-09T12:22:34.111Z,38.09
2024-05-09T12:23:36.642Z,38.35
2024-05-09T12:24:41.851Z,36.82
2024-05-09T12:25:47.708Z,41.17
2024-05-09T12:26:50.892Z,43.32
2024-05-09T12:27:53.542Z,39.38
2024-05-09T12:28:56.105Z,42.24
2024-05-09T12:30:01.488Z,45.46
2024-05-09T12:31:04.565Z,48.83
2024-05-09T12:32:07.652Z,52.43
2024-05-09T12:33:14.387Z,51.78
2024-05-09T12:34:17.103Z,60.95
2024-05-09T12:35:22.610Z,56.04
2024-05-09T12:36:25.016Z,56.08
2024-05-09T12:37:30.489Z,64.51
2024-05-09T12:38:33.190Z,68.94
2024-05-09T12:39:35.725Z,62.38
2024-05-09T12:40:41.345Z,81.21
2024-05-09T12:41:46.457Z,82.36
2024-05-09T12:42:50.414Z,73.19
2024-05-09T12:43:52.851Z,67.24
2024-05-09T12:44:55.280Z,66.40
2024-05-09T12:46:00.914Z,71.45
2024-05-09T12:47:03.570Z,71.35
2024-05-09T12:48:08.647Z,75.54
2024-05-09T12:49:12.713Z,76.97
2024-05-09T12:50:28.771Z,92.02
2024-05-09T12:51:34.768Z,94.20
2024-05-09T12:52:37.387Z,100.00
2024-05-09T12:53:39.989Z,100.00
2024-05-09T12:54:45.196Z,95.47
2024-05-09T12:55:56.837Z,87.14
2024-05-09T12:57:02.777Z,78.59
2024-05-09T12:58:08.973Z,89.33
2024-05-09T12:59:11.896Z,89.67
2024-05-09T13:00:23.482Z,95.06
2024-05-09T13:01:30.919Z,98.60
2024-05-09T13:02:36.350Z,88.73
2024-05-09T13:03:39.081Z,89.95
2024-05-09T13:04:42.252Z,91.43
2024-05-09T13:05:48.274Z,93.21
2024-05-09T13:06:51.282Z,92.57
2024-05-09T13:07:54.135Z,86.15
2024-05-09T13:09:00.258Z,95.44
2024-05-09T13:10:04.637Z,100.00
2024-05-09T13:11:11.480Z,100.00
2024-05-09T13:12:17.262Z,100.00
2024-05-09T13:13:20.557Z,100.00
2024-05-09T13:14:23.504Z,100.00
2024-05-09T13:15:26.754Z,96.16
2024-05-09T13:16:32.359Z,91.61
2024-05-09T13:17:35.116Z,94.24
2024-05-09T13:18:37.759Z,88.31
2024-05-09T13:19:40.523Z,100.00
2024-05-09T13:20:45.922Z,96.86
2024-05-09T13:21:48.587Z,100.00
2024-05-09T13:22:51.371Z,100.00
2024-05-09T13:23:56.886Z,100.00
2024-05-09T13:25:01.346Z,100.00
2024-05-09T13:26:04.208Z,100.00
2024-05-09T13:27:10.269Z,100.00
2024-05-09T13:28:15.741Z,100.00
2024-05-09T13:29:18.622Z,100.00
2024-05-09T13:30:29.250Z,100.00
2024-05-09T13:31:43.228Z,100.00
2024-05-09T13:32:45.937Z,100.00
2024-05-09T13:33:48.713Z,100.00
2024-05-09T13:34:51.551Z,100.00
2024-05-09T13:35:56.916Z,100.00
2024-05-09T13:36:59.700Z,100.00
2024-05-09T13:38:02.712Z,100.00
2024-05-09T13:39:05.251Z,100.00
2024-05-09T13:40:14.238Z,100.00
2024-05-09T13:41:16.975Z,100.00
2024-05-09T13:42:22.143Z,100.00
2024-05-09T13:43:27.530Z,100.00
2024-05-09T13:44:30.251Z,100.00
2024-05-09T13:45:33.281Z,100.00
2024-05-09T13:46:36.786Z,100.00
2024-05-09T13:47:42.262Z,100.00
2024-05-09T13:48:45.043Z,100.00
2024-05-09T13:49:48.505Z,100.00